createdAt,value
2018-03-18T00:00:52.816Z,85.57
2018-03-18T00:01:52.826Z,85.47
2018-03-18T00:02:52.582Z,85.38
2018-03-18T00:03:52.849Z,85.28
2018-03-18T00:04:52.605Z,85.66
2018-03-18T00:05:52.880Z,85.38
2018-03-18T00:06:52.880Z,84.71
2018-03-18T00:07:52.642Z,85.38
2018-03-18T00:08:52.906Z,85.47
2018-03-18T00:09:52.669Z,84.81
2018-03-18T00:10:52.681Z,84.71
2018-03-18T00:11:52.939Z,85.38
2018-03-18T00:12:52.950Z,85.47
2018-03-18T00:13:52.961Z,84.71
2018-03-18T00:14:52.976Z,85.66
2018-03-18T00:15:52.990Z,85.38
2018-03-18T00:16:52.995Z,85.19
2018-03-18T00:17:53.018Z,84.71
2018-03-18T00:18:53.025Z,84.81
2018-03-18T00:19:52.784Z,84.9
2018-03-18T00:20:52.797Z,84.81
2018-03-18T00:21:53.058Z,85
2018-03-18T00:22:53.073Z,84.9
2018-03-18T00:23:53.084Z,84.52
2018-03-18T00:24:53.098Z,85
2018-03-18T00:25:53.106Z,85.09
2018-03-18T00:26:52.868Z,85.09
2018-03-18T00:27:53.139Z,84.9
2018-03-18T00:28:52.894Z,84.71
2018-03-18T00:29:53.155Z,85.19
2018-03-18T00:30:53.171Z,85.38
2018-03-18T00:31:52.943Z,84.81
2018-03-18T00:32:53.192Z,84.52
2018-03-18T00:33:53.204Z,84.42
2018-03-18T00:34:53.217Z,85
2018-03-18T00:35:53.232Z,84.71
2018-03-18T00:36:52.985Z,85
2018-03-18T00:37:53.254Z,84.9
2018-03-18T00:38:53.010Z,85.19
2018-03-18T00:39:53.022Z,85
2018-03-18T00:40:53.291Z,84.33
2018-03-18T00:41:53.046Z,85
2018-03-18T00:42:53.310Z,84.33
2018-03-18T00:43:53.319Z,84.71
2018-03-18T00:44:53.082Z,84.81
2018-03-18T00:45:53.095Z,84.9
2018-03-18T00:46:53.124Z,84.81
2018-03-18T00:47:53.367Z,84.9
2018-03-18T00:48:53.381Z,84.71
2018-03-18T00:49:53.145Z,85
2018-03-18T00:50:53.406Z,84.81
2018-03-18T00:51:53.417Z,85
2018-03-18T00:52:53.435Z,85
2018-03-18T00:53:53.437Z,85
2018-03-18T00:54:53.460Z,84.71
2018-03-18T00:55:53.466Z,85
2018-03-18T00:56:53.475Z,84.52
2018-03-18T00:57:53.495Z,83.95
2018-03-18T00:58:53.652Z,84.23
2018-03-18T00:59:53.513Z,83.95
2018-03-18T01:00:53.271Z,83.76
2018-03-18T01:01:53.280Z,83.95
2018-03-18T01:02:53.293Z,84.23
2018-03-18T01:03:53.303Z,84.14
2018-03-18T01:04:53.317Z,84.42
2018-03-18T01:05:53.589Z,84.05
2018-03-18T01:06:53.596Z,83.86
2018-03-18T01:07:53.609Z,83.48
2018-03-18T01:08:53.618Z,83.67
2018-03-18T01:09:53.632Z,83.81
2018-03-18T01:10:53.650Z,83.58
2018-03-18T01:11:53.654Z,83.2
2018-03-18T01:12:53.412Z,83.52
2018-03-18T01:13:53.728Z,83.33
2018-03-18T01:14:53.689Z,82.57
2018-03-18T01:15:53.703Z,82.48
2018-03-18T01:16:53.718Z,82.25
2018-03-18T01:17:53.726Z,82.44
2018-03-18T01:18:53.737Z,82.91
2018-03-18T01:19:53.753Z,81.96
2018-03-18T01:20:53.766Z,82.91
2018-03-18T01:21:53.777Z,83.1
2018-03-18T01:22:53.533Z,83.01
2018-03-18T01:23:53.802Z,83.1
2018-03-18T01:24:53.559Z,83.39
2018-03-18T01:25:53.825Z,83.48
2018-03-18T01:26:53.836Z,83.29
2018-03-18T01:27:53.851Z,83.1
2018-03-18T01:28:53.928Z,83.39
2018-03-18T01:29:53.875Z,83.29
2018-03-18T01:30:53.887Z,82.82
2018-03-18T01:31:53.895Z,82.91
2018-03-18T01:32:53.911Z,83.1
2018-03-18T01:33:53.927Z,83.01
2018-03-18T01:34:53.935Z,82.34
2018-03-18T01:35:53.694Z,82.34
2018-03-18T01:36:53.966Z,82.53
2018-03-18T01:37:53.973Z,82.63
2018-03-18T01:38:53.729Z,82.15
2018-03-18T01:39:53.993Z,82.06
2018-03-18T01:40:54.007Z,82.53
2018-03-18T01:41:54.018Z,82.34
2018-03-18T01:42:54.080Z,83.2
2018-03-18T01:43:54.054Z,83.2
2018-03-18T01:44:54.058Z,82.82
2018-03-18T01:45:54.066Z,83.1
2018-03-18T01:46:54.077Z,82.63
2018-03-18T01:47:54.088Z,82.34
2018-03-18T01:48:54.100Z,82.72
2018-03-18T01:49:54.116Z,82.44
2018-03-18T01:50:53.874Z,81.96
2018-03-18T01:51:53.884Z,81.77
2018-03-18T01:52:54.146Z,82.15
2018-03-18T01:53:53.907Z,82.63
2018-03-18T01:54:54.172Z,82.34
2018-03-18T01:55:54.188Z,82.53
2018-03-18T01:56:53.943Z,82.63
2018-03-18T01:57:54.212Z,82.63
2018-03-18T01:58:53.966Z,82.91
2018-03-18T01:59:54.244Z,81.87
2018-03-18T02:00:53.990Z,82.06
2018-03-18T02:01:54.258Z,81.96
2018-03-18T02:02:54.272Z,82.44
2018-03-18T02:03:54.280Z,82.91
2018-03-18T02:04:54.296Z,82.25
2018-03-18T02:05:54.303Z,82.53
2018-03-18T02:06:54.321Z,82.25
2018-03-18T02:07:54.328Z,82.53
2018-03-18T02:08:54.342Z,82.72
2018-03-18T02:09:54.099Z,82.72
2018-03-18T02:10:54.372Z,83.1
2018-03-18T02:11:54.378Z,83.34
2018-03-18T02:12:54.390Z,82.91
2018-03-18T02:13:54.458Z,83.63
2018-03-18T02:14:54.159Z,83.72
2018-03-18T02:15:54.424Z,84.1
2018-03-18T02:16:54.436Z,84.48
2018-03-18T02:17:54.448Z,84.67
2018-03-18T02:18:54.459Z,84.95
2018-03-18T02:19:54.472Z,85.05
2018-03-18T02:20:54.483Z,84.48
2018-03-18T02:21:54.498Z,84.86
2018-03-18T02:22:54.506Z,84.29
2018-03-18T02:23:54.520Z,84.48
2018-03-18T02:24:54.630Z,84.95
2018-03-18T02:25:54.566Z,84.58
2018-03-18T02:26:54.300Z,84.29
2018-03-18T02:27:54.565Z,83.63
2018-03-18T02:28:54.574Z,84.48
2018-03-18T02:29:54.383Z,84.48
2018-03-18T02:30:54.603Z,84.95
2018-03-18T02:31:54.357Z,84.95
2018-03-18T02:32:54.380Z,84.77
2018-03-18T02:33:54.628Z,84.39
2018-03-18T02:34:54.634Z,84.86
2018-03-18T02:35:54.649Z,84.95
2018-03-18T02:36:54.417Z,85.52
2018-03-18T02:37:54.682Z,85.42
2018-03-18T02:38:54.693Z,85.14
2018-03-18T02:39:54.456Z,85.9
2018-03-18T02:40:54.770Z,85.9
2018-03-18T02:41:54.731Z,85.71
2018-03-18T02:42:54.737Z,85.99
2018-03-18T02:43:54.752Z,86.56
2018-03-18T02:44:54.811Z,86.37
2018-03-18T02:45:54.523Z,86.37
2018-03-18T02:46:54.786Z,86.56
2018-03-18T02:47:54.796Z,86.47
2018-03-18T02:48:54.815Z,85.71
2018-03-18T02:49:54.835Z,85.99
2018-03-18T02:50:54.575Z,86.28
2018-03-18T02:51:54.848Z,86.47
2018-03-18T02:52:54.881Z,86.18
2018-03-18T02:53:54.866Z,86.37
2018-03-18T02:54:54.875Z,86.75
2018-03-18T02:55:54.893Z,86.28
2018-03-18T02:56:54.904Z,86.47
2018-03-18T02:57:54.911Z,86.66
2018-03-18T02:58:54.974Z,86.75
2018-03-18T02:59:54.929Z,86.66
2018-03-18T03:00:54.940Z,86.13
2018-03-18T03:01:54.955Z,85.71
2018-03-18T03:02:54.966Z,86.47
2018-03-18T03:03:54.993Z,86.66
2018-03-18T03:04:54.734Z,86.47
2018-03-18T03:05:55.001Z,86.47
2018-03-18T03:06:55.019Z,86.47
2018-03-18T03:07:55.028Z,86.28
2018-03-18T03:08:55.063Z,86.75
2018-03-18T03:09:54.799Z,86.75
2018-03-18T03:10:55.060Z,86.94
2018-03-18T03:11:55.070Z,87.23
2018-03-18T03:12:54.827Z,86.85
2018-03-18T03:13:55.095Z,87.13
2018-03-18T03:14:55.103Z,87.23
2018-03-18T03:15:55.119Z,87.23
2018-03-18T03:16:55.135Z,87.23
2018-03-18T03:17:55.139Z,86.66
2018-03-18T03:18:55.152Z,86.94
2018-03-18T03:19:55.159Z,86.56
2018-03-18T03:20:55.169Z,86.37
2018-03-18T03:21:55.185Z,86.56
2018-03-18T03:22:55.194Z,86.75
2018-03-18T03:23:55.206Z,86.47
2018-03-18T03:24:55.215Z,86.56
2018-03-18T03:25:54.974Z,86.66
2018-03-18T03:26:54.985Z,86.75
2018-03-18T03:27:55.251Z,86.66
2018-03-18T03:28:55.267Z,86.94
2018-03-18T03:29:55.020Z,87.23
2018-03-18T03:30:55.289Z,86.94
2018-03-18T03:31:55.042Z,87.04
2018-03-18T03:32:55.061Z,86.66
2018-03-18T03:33:55.115Z,86.56
2018-03-18T03:34:55.328Z,86.56
2018-03-18T03:35:55.343Z,86.56
2018-03-18T03:36:55.353Z,86.94
2018-03-18T03:37:55.362Z,86.66
2018-03-18T03:38:55.378Z,86.85
2018-03-18T03:39:55.421Z,87.04
2018-03-18T03:40:55.400Z,86.66
2018-03-18T03:41:55.409Z,86.47
2018-03-18T03:42:55.168Z,86.47
2018-03-18T03:43:55.447Z,86.66
2018-03-18T03:44:55.443Z,86.85
2018-03-18T03:45:55.457Z,86.66
2018-03-18T03:46:55.464Z,86.85
2018-03-18T03:47:55.481Z,86.85
2018-03-18T03:48:55.538Z,86.56
2018-03-18T03:49:55.499Z,87.13
2018-03-18T03:50:55.257Z,86.94
2018-03-18T03:51:55.521Z,86.94
2018-03-18T03:52:55.531Z,86.85
2018-03-18T03:53:55.292Z,86.94
2018-03-18T03:54:55.302Z,87.13
2018-03-18T03:55:55.567Z,86.66
2018-03-18T03:56:55.583Z,87.23
2018-03-18T03:57:55.334Z,86.94
2018-03-18T03:58:55.601Z,86.56
2018-03-18T03:59:55.356Z,86.37
2018-03-18T04:00:55.626Z,86.37
2018-03-18T04:01:55.635Z,87.04
2018-03-18T04:02:55.642Z,86.56
2018-03-18T04:03:55.658Z,86.47
2018-03-18T04:04:55.669Z,86.47
2018-03-18T04:05:55.438Z,86.56
2018-03-18T04:06:55.702Z,86.37
2018-03-18T04:07:55.706Z,86.09
2018-03-18T04:08:55.718Z,86.09
2018-03-18T04:09:55.471Z,86.56
2018-03-18T04:10:55.480Z,86.47
2018-03-18T04:11:55.746Z,86.37
2018-03-18T04:12:55.758Z,86.85
2018-03-18T04:13:55.515Z,86.37
2018-03-18T04:14:55.777Z,86.56
2018-03-18T04:15:55.792Z,86.47
2018-03-18T04:16:55.806Z,86.47
2018-03-18T04:17:55.814Z,85.71
2018-03-18T04:18:55.824Z,86.56
2018-03-18T04:19:55.841Z,86.37
2018-03-18T04:20:55.593Z,86.56
2018-03-18T04:21:55.875Z,86.94
2018-03-18T04:22:55.666Z,86.22
2018-03-18T04:23:55.882Z,85.99
2018-03-18T04:24:55.638Z,85.52
2018-03-18T04:25:55.901Z,85.61
2018-03-18T04:26:55.668Z,86.18
2018-03-18T04:27:55.931Z,86.37
2018-03-18T04:28:55.684Z,86.18
2018-03-18T04:29:55.952Z,85.99
2018-03-18T04:30:55.708Z,85.61
2018-03-18T04:31:55.971Z,85.8
2018-03-18T04:32:55.982Z,85.9
2018-03-18T04:33:55.748Z,86.66
2018-03-18T04:34:56.006Z,86.18
2018-03-18T04:35:55.763Z,86.75
2018-03-18T04:36:56.027Z,85.71
2018-03-18T04:37:56.090Z,86.28
2018-03-18T04:38:56.052Z,85.8
2018-03-18T04:39:56.063Z,85.71
2018-03-18T04:40:56.078Z,85.42
2018-03-18T04:41:56.088Z,85.9
2018-03-18T04:42:56.094Z,85.99
2018-03-18T04:43:56.108Z,85.9
2018-03-18T04:44:56.117Z,85.99
2018-03-18T04:45:56.130Z,86.28
2018-03-18T04:46:56.138Z,85.42
2018-03-18T04:47:56.155Z,86.18
2018-03-18T04:48:56.166Z,86.09
2018-03-18T04:49:56.178Z,86.28
2018-03-18T04:50:56.187Z,85.8
2018-03-18T04:51:56.199Z,85.8
2018-03-18T04:52:55.957Z,85.61
2018-03-18T04:53:56.232Z,86.56
2018-03-18T04:54:56.234Z,85.9
2018-03-18T04:55:55.989Z,86.47
2018-03-18T04:56:56.262Z,86.47
2018-03-18T04:57:56.011Z,86.18
2018-03-18T04:58:56.291Z,86.47
2018-03-18T04:59:56.290Z,85.71
2018-03-18T05:00:56.296Z,85.9
2018-03-18T05:01:56.323Z,85.9
2018-03-18T05:02:56.314Z,85.52
2018-03-18T05:03:56.083Z,85.71
2018-03-18T05:04:56.338Z,85.61
2018-03-18T05:05:56.099Z,85.52
2018-03-18T05:06:56.411Z,85.71
2018-03-18T05:07:56.374Z,85.99
2018-03-18T05:08:56.393Z,85.52
2018-03-18T05:09:56.395Z,85.14
2018-03-18T05:10:56.151Z,85.33
2018-03-18T05:11:56.423Z,85.52
2018-03-18T05:12:56.427Z,85.66
2018-03-18T05:13:56.187Z,85.66
2018-03-18T05:14:56.456Z,85.66
2018-03-18T05:15:56.209Z,86.33
2018-03-18T05:16:56.223Z,86.33
2018-03-18T05:17:56.490Z,85.57
2018-03-18T05:18:56.243Z,86.14
2018-03-18T05:19:56.509Z,85.95
2018-03-18T05:20:56.517Z,86.23
2018-03-18T05:21:56.276Z,86.47
2018-03-18T05:22:56.539Z,86.56
2018-03-18T05:23:56.344Z,86.37
2018-03-18T05:24:56.562Z,86.37
2018-03-18T05:25:56.571Z,86.56
2018-03-18T05:26:56.583Z,85.9
2018-03-18T05:27:56.592Z,85.9
2018-03-18T05:28:56.603Z,85.99
2018-03-18T05:29:56.619Z,85.33
2018-03-18T05:30:56.628Z,85.14
2018-03-18T05:31:56.640Z,85.05
2018-03-18T05:32:56.647Z,85.71
2018-03-18T05:33:56.662Z,85.42
2018-03-18T05:34:56.667Z,85.52
2018-03-18T05:35:56.680Z,84.95
2018-03-18T05:36:56.690Z,84.77
2018-03-18T05:37:56.448Z,85.33
2018-03-18T05:38:56.767Z,85.9
2018-03-18T05:39:56.724Z,85.99
2018-03-18T05:40:56.735Z,85.42
2018-03-18T05:41:56.743Z,85.52
2018-03-18T05:42:56.756Z,85.61
2018-03-18T05:43:56.766Z,85.71
2018-03-18T05:44:56.778Z,86.09
2018-03-18T05:45:56.794Z,86.18
2018-03-18T05:46:56.547Z,84.58
2018-03-18T05:47:56.560Z,84.77
2018-03-18T05:48:56.820Z,84.67
2018-03-18T05:49:56.576Z,84.95
2018-03-18T05:50:56.843Z,84.86
2018-03-18T05:51:56.856Z,84.48
2018-03-18T05:52:56.866Z,85.05
2018-03-18T05:53:57.127Z,84.77
2018-03-18T05:54:56.884Z,84.58
2018-03-18T05:55:56.898Z,84.67
2018-03-18T05:56:56.909Z,84.77
2018-03-18T05:57:56.921Z,84.39
2018-03-18T05:58:56.941Z,84.39
2018-03-18T05:59:56.953Z,84.77
2018-03-18T06:00:56.955Z,83.34
2018-03-18T06:01:56.709Z,84.01
2018-03-18T06:02:56.975Z,83.72
2018-03-18T06:03:56.988Z,84.58
2018-03-18T06:04:56.995Z,84.39
2018-03-18T06:05:57.008Z,84.29
2018-03-18T06:06:56.773Z,83.82
2018-03-18T06:07:56.775Z,83.44
2018-03-18T06:08:57.043Z,83.44
2018-03-18T06:09:57.054Z,83.72
2018-03-18T06:10:57.065Z,83.72
2018-03-18T06:11:57.076Z,82.97
2018-03-18T06:12:57.092Z,82.87
2018-03-18T06:13:57.097Z,83.25
2018-03-18T06:14:57.110Z,83.06
2018-03-18T06:15:57.119Z,83.15
2018-03-18T06:16:57.130Z,82.97
2018-03-18T06:17:57.252Z,83.44
2018-03-18T06:18:57.154Z,83.06
2018-03-18T06:19:56.909Z,83.53
2018-03-18T06:20:57.180Z,82.97
2018-03-18T06:21:57.201Z,82.59
2018-03-18T06:22:56.944Z,82.12
2018-03-18T06:23:57.209Z,82.5
2018-03-18T06:24:57.002Z,82.4
2018-03-18T06:25:57.229Z,82.68
2018-03-18T06:26:57.242Z,82.59
2018-03-18T06:27:57.000Z,82.5
2018-03-18T06:28:57.268Z,82.02
2018-03-18T06:29:57.273Z,82.4
2018-03-18T06:30:57.288Z,82.12
2018-03-18T06:31:57.047Z,82.21
2018-03-18T06:32:57.308Z,82.5
2018-03-18T06:33:57.087Z,81.74
2018-03-18T06:34:57.331Z,82.12
2018-03-18T06:35:57.089Z,82.31
2018-03-18T06:36:57.405Z,82.02
2018-03-18T06:38:57.374Z,82.97
2018-03-18T06:39:57.389Z,82.87
2018-03-18T06:40:57.405Z,83.15
2018-03-18T06:41:57.411Z,82.59
2018-03-18T06:42:57.423Z,82.59
2018-03-18T06:43:57.429Z,82.02
2018-03-18T06:44:57.439Z,81.07
2018-03-18T06:45:57.198Z,82.02
2018-03-18T06:46:57.462Z,82.21
2018-03-18T06:47:57.476Z,82.21
2018-03-18T06:48:57.484Z,81.83
2018-03-18T06:49:57.495Z,82.02
2018-03-18T06:50:57.513Z,82.35
2018-03-18T06:51:57.767Z,81.98
2018-03-18T06:52:57.280Z,82.4
2018-03-18T06:53:57.287Z,82.54
2018-03-18T06:54:57.551Z,83.02
2018-03-18T06:55:57.330Z,82.92
2018-03-18T06:56:57.575Z,82.4
2018-03-18T06:57:57.587Z,82.64
2018-03-18T06:58:57.601Z,82.4
2018-03-18T06:59:57.613Z,82.59
2018-03-18T07:00:57.622Z,82.07
2018-03-18T07:01:57.636Z,82.54
2018-03-18T07:02:57.646Z,82.31
2018-03-18T07:03:57.655Z,82.4
2018-03-18T07:04:57.670Z,81.93
2018-03-18T07:05:57.678Z,82.02
2018-03-18T07:06:57.690Z,81.55
2018-03-18T07:07:57.701Z,81.07
2018-03-18T07:08:57.458Z,82.21
2018-03-18T07:09:57.723Z,82.5
2018-03-18T07:10:57.787Z,82.4
2018-03-18T07:11:57.491Z,82.31
2018-03-18T07:12:57.500Z,81.83
2018-03-18T07:13:57.771Z,81.83
2018-03-18T07:14:57.779Z,81.74
2018-03-18T07:15:57.793Z,81.17
2018-03-18T07:16:57.802Z,82.12
2018-03-18T07:17:57.810Z,82.31
2018-03-18T07:18:57.835Z,81.74
2018-03-18T07:19:57.891Z,81.74
2018-03-18T07:20:57.846Z,81.93
2018-03-18T07:21:57.604Z,82.02
2018-03-18T07:22:57.870Z,81.26
2018-03-18T07:23:57.881Z,81.36
2018-03-18T07:24:57.637Z,80.88
2018-03-18T07:25:57.647Z,80.6
2018-03-18T07:26:57.962Z,80.51
2018-03-18T07:27:57.671Z,79.85
2018-03-18T07:28:57.934Z,79.66
2018-03-18T07:29:57.692Z,79.47
2018-03-18T07:30:57.956Z,80.13
2018-03-18T07:31:57.978Z,79.94
2018-03-18T07:32:57.725Z,80.51
2018-03-18T07:33:57.992Z,80.22
2018-03-18T07:34:58.002Z,80.51
2018-03-18T07:35:58.037Z,80.41
2018-03-18T07:36:58.024Z,80.41
2018-03-18T07:37:58.052Z,80.22
2018-03-18T07:38:57.795Z,80.6
2018-03-18T07:39:58.110Z,80.22
2018-03-18T07:40:58.071Z,80.6
2018-03-18T07:41:58.081Z,80.41
2018-03-18T07:42:58.098Z,80.32
2018-03-18T07:43:58.105Z,80.51
2018-03-18T07:44:57.863Z,80.13
2018-03-18T07:45:58.127Z,80.79
2018-03-18T07:46:58.137Z,80.88
2018-03-18T07:47:58.155Z,79.28
2018-03-18T07:48:58.164Z,79.47
2018-03-18T07:49:58.171Z,79.66
2018-03-18T07:50:58.182Z,80.13
2018-03-18T07:51:57.965Z,79.28
2018-03-18T07:52:58.209Z,79.75
2018-03-18T07:53:58.220Z,78.8
2018-03-18T07:54:58.280Z,78.99
2018-03-18T07:55:58.243Z,78.42
2018-03-18T07:56:58.251Z,78.99
2018-03-18T07:57:58.264Z,78.99
2018-03-18T07:58:58.032Z,78.61
2018-03-18T07:59:58.032Z,78.67
2018-03-18T08:00:58.305Z,80.08
2018-03-18T08:01:58.333Z,79.56
2018-03-18T08:02:58.321Z,79.66
2018-03-18T08:03:58.332Z,78.9
2018-03-18T08:04:58.344Z,79.75
2018-03-18T08:05:58.101Z,79.37
2018-03-18T08:06:58.367Z,79.66
2018-03-18T08:07:58.379Z,78.9
2018-03-18T08:08:58.134Z,79.28
2018-03-18T08:09:58.399Z,80.22
2018-03-18T08:10:58.414Z,79.37
2018-03-18T08:11:58.417Z,79.56
2018-03-18T08:12:58.431Z,79.09
2018-03-18T08:13:58.454Z,78.8
2018-03-18T08:14:58.202Z,79.28
2018-03-18T08:15:58.210Z,78.9
2018-03-18T08:16:58.473Z,79.28
2018-03-18T08:17:58.234Z,78.99
2018-03-18T08:18:58.501Z,78.99
2018-03-18T08:19:58.560Z,78.52
2018-03-18T08:20:58.553Z,78.23
2018-03-18T08:21:58.533Z,77.58
2018-03-18T08:22:58.545Z,77.76
2018-03-18T08:23:58.300Z,78.42
2018-03-18T08:24:58.564Z,79.09
2018-03-18T08:25:58.325Z,79.37
2018-03-18T08:26:58.636Z,79.09
2018-03-18T08:27:58.599Z,79.75
2018-03-18T08:28:58.612Z,78.99
2018-03-18T08:29:58.650Z,77.67
2018-03-18T08:30:58.637Z,78.14
2018-03-18T08:31:58.645Z,78.23
2018-03-18T08:32:58.400Z,77.39
2018-03-18T08:33:58.667Z,77.67
2018-03-18T08:34:58.680Z,77.76
2018-03-18T08:35:58.777Z,77.1
2018-03-18T08:36:58.716Z,77.58
2018-03-18T08:37:58.722Z,78.33
2018-03-18T08:38:58.729Z,78.33
2018-03-18T08:39:58.738Z,78.14
2018-03-18T08:40:58.749Z,77.8
2018-03-18T08:41:58.778Z,77.04
2018-03-18T08:42:58.928Z,77.8
2018-03-18T08:43:58.534Z,77.89
2018-03-18T08:44:58.797Z,77.61
2018-03-18T08:45:58.824Z,76.95
2018-03-18T08:46:58.822Z,75.81
2018-03-18T08:47:58.886Z,74.24
2018-03-18T08:48:58.852Z,74.9
2018-03-18T08:49:58.609Z,75.28
2018-03-18T08:50:58.873Z,74.62
2018-03-18T08:51:58.634Z,72.63
2018-03-18T08:52:58.903Z,72.92
2018-03-18T08:53:58.916Z,73.01
2018-03-18T08:54:58.926Z,72.63
2018-03-18T08:55:58.953Z,72.53
2018-03-18T08:56:58.702Z,70.64
2018-03-18T08:57:58.715Z,71.21
2018-03-18T08:58:58.984Z,70.58
2018-03-18T08:59:59.053Z,71.15
2018-03-18T09:00:59.008Z,73.05
2018-03-18T09:01:59.028Z,72
2018-03-18T09:02:59.036Z,71.34
2018-03-18T09:03:59.051Z,72.44
2018-03-18T09:04:59.070Z,71.53
2018-03-18T09:05:59.085Z,70.49
2018-03-18T09:06:59.090Z,70.58
2018-03-18T09:07:59.108Z,71.4
2018-03-18T09:08:58.867Z,70.64
2018-03-18T09:09:59.136Z,71.4
2018-03-18T09:10:59.153Z,70.55
2018-03-18T09:11:59.165Z,71.69
2018-03-18T09:12:59.172Z,72.16
2018-03-18T09:13:58.937Z,72.73
2018-03-18T09:14:58.995Z,72.73
2018-03-18T09:15:58.960Z,73.2
2018-03-18T09:16:59.224Z,72.53
2018-03-18T09:17:59.236Z,73.49
2018-03-18T09:18:59.251Z,74.05
2018-03-18T09:19:59.265Z,74.52
2018-03-18T09:20:59.279Z,75.47
2018-03-18T09:21:59.036Z,77.46
2018-03-18T09:22:59.319Z,77.18
2018-03-18T09:23:59.064Z,77.18
2018-03-18T09:24:59.329Z,77.27
2018-03-18T09:25:59.344Z,77.37
2018-03-18T09:26:59.355Z,77.08
2018-03-18T09:27:59.382Z,76.86
2018-03-18T09:28:59.387Z,77.27
2018-03-18T09:29:59.145Z,78.08
2018-03-18T09:30:59.415Z,78.5
2018-03-18T09:31:59.176Z,78.22
2018-03-18T09:32:59.444Z,76.89
2018-03-18T09:33:59.500Z,77.94
2018-03-18T09:34:59.464Z,77.18
2018-03-18T09:35:59.484Z,77.27
2018-03-18T09:36:59.239Z,74.24
2018-03-18T09:37:59.506Z,75.57
2018-03-18T09:38:59.519Z,76.57
2018-03-18T09:39:59.532Z,76.57
2018-03-18T09:40:59.548Z,77.94
2018-03-18T09:41:59.553Z,76.99
2018-03-18T09:42:59.314Z,76.7
2018-03-18T09:43:59.586Z,77.75
2018-03-18T09:44:59.597Z,76.8
2018-03-18T09:45:59.609Z,74.33
2018-03-18T09:46:59.379Z,74.33
2018-03-18T09:47:59.631Z,73.49
2018-03-18T09:48:59.646Z,72.82
2018-03-18T09:49:59.654Z,73.86
2018-03-18T09:50:59.673Z,74.24
2018-03-18T09:51:59.685Z,75.09
2018-03-18T09:52:59.695Z,75.38
2018-03-18T09:53:59.707Z,76.99
2018-03-18T09:54:59.722Z,75.57
2018-03-18T09:55:59.750Z,73.77
2018-03-18T09:56:59.734Z,73.86
2018-03-18T09:57:59.749Z,74.33
2018-03-18T09:58:59.764Z,74.43
2018-03-18T09:59:59.597Z,72.73
2018-03-18T10:00:59.795Z,72.44
2018-03-18T10:01:59.813Z,72.92
2018-03-18T10:02:59.835Z,72.34
2018-03-18T10:03:59.844Z,72.73
2018-03-18T10:04:59.597Z,73.58
2018-03-18T10:05:59.612Z,72.73
2018-03-18T10:06:59.890Z,71.59
2018-03-18T10:07:59.638Z,72.34
2018-03-18T10:08:59.904Z,71.59
2018-03-18T10:09:59.664Z,72.53
2018-03-18T10:10:59.931Z,72.82
2018-03-18T10:11:59.945Z,72.25
2018-03-18T10:12:59.958Z,73.86
2018-03-18T10:14:00.038Z,72.48
2018-03-18T10:15:00.003Z,72.82
2018-03-18T10:15:59.997Z,73.8
2018-03-18T10:16:59.761Z,70.68
2018-03-18T10:17:59.771Z,70.11
2018-03-18T10:19:00.041Z,70.39
2018-03-18T10:20:00.064Z,71.91
2018-03-18T10:21:00.068Z,69.64
2018-03-18T10:22:00.095Z,70.58
2018-03-18T10:23:00.091Z,70.39
2018-03-18T10:23:59.852Z,70.49
2018-03-18T10:25:00.123Z,71.15
2018-03-18T10:25:59.880Z,68.5
2018-03-18T10:27:00.156Z,68.21
2018-03-18T10:27:59.910Z,71.44
2018-03-18T10:29:00.179Z,75.04
2018-03-18T10:30:00.192Z,72.38
2018-03-18T10:31:00.202Z,70.11
2018-03-18T10:32:00.014Z,70.11
2018-03-18T10:33:00.231Z,69.73
2018-03-18T10:34:00.251Z,69.64
2018-03-18T10:35:00.257Z,70.3
2018-03-18T10:36:00.272Z,70.58
2018-03-18T10:37:00.376Z,69.92
2018-03-18T10:38:00.042Z,70.78
2018-03-18T10:39:00.311Z,69.82
2018-03-18T10:40:00.323Z,71.81
2018-03-18T10:41:00.347Z,70.01
2018-03-18T10:42:00.610Z,68.79
2018-03-18T10:43:00.111Z,67.27
2018-03-18T10:44:00.123Z,68.31
2018-03-18T10:45:00.137Z,67.87
2018-03-18T10:46:00.405Z,67.3
2018-03-18T10:47:00.472Z,67.4
2018-03-18T10:48:00.179Z,68.06
2018-03-18T10:49:00.461Z,70.05
2018-03-18T10:50:00.463Z,69.48
2018-03-18T10:51:00.486Z,65.03
2018-03-18T10:52:00.235Z,64.74
2018-03-18T10:53:00.248Z,65.22
2018-03-18T10:54:00.515Z,67.4
2018-03-18T10:55:00.536Z,67.3
2018-03-18T10:56:00.544Z,65.41
2018-03-18T10:57:00.304Z,66.74
2018-03-18T10:58:00.573Z,67.11
2018-03-18T10:59:00.346Z,67.3
2018-03-18T11:00:00.346Z,68.15
2018-03-18T11:01:00.623Z,65.97
2018-03-18T11:02:00.681Z,65.41
2018-03-18T11:03:00.391Z,64.93
2018-03-18T11:04:00.664Z,65.41
2018-03-18T11:05:00.418Z,65.22
2018-03-18T11:06:00.434Z,65.78
2018-03-18T11:07:00.705Z,65.5
2018-03-18T11:08:00.718Z,68.59
2018-03-18T11:09:00.807Z,67.3
2018-03-18T11:10:00.490Z,66.7
2018-03-18T11:11:00.760Z,65.5
2018-03-18T11:12:00.518Z,65.97
2018-03-18T11:13:00.536Z,67.4
2018-03-18T11:14:00.799Z,67.3
2018-03-18T11:15:00.561Z,66.64
2018-03-18T11:16:00.828Z,66.45
2018-03-18T11:17:00.840Z,65.97
2018-03-18T11:18:00.861Z,64.27
2018-03-18T11:19:00.866Z,65.31
2018-03-18T11:20:00.904Z,64.84
2018-03-18T11:21:00.898Z,63.98
2018-03-18T11:22:00.910Z,63.89
2018-03-18T11:23:00.672Z,63.32
2018-03-18T11:24:00.940Z,64.74
2018-03-18T11:25:00.952Z,64.65
2018-03-18T11:26:00.971Z,67.3
2018-03-18T11:27:00.729Z,66.74
2018-03-18T11:28:00.998Z,67.58
2018-03-18T11:29:01.008Z,64.55
2018-03-18T11:30:01.036Z,65.41
2018-03-18T11:31:01.041Z,65.41
2018-03-18T11:32:01.057Z,64.74
2018-03-18T11:33:01.073Z,64.2
2018-03-18T11:34:00.833Z,64.17
2018-03-18T11:35:01.098Z,64.78
2018-03-18T11:36:01.144Z,62.21
2018-03-18T11:37:01.135Z,63.54
2018-03-18T11:38:01.203Z,64.4
2018-03-18T11:39:01.156Z,61.83
2018-03-18T11:40:01.177Z,63.82
2018-03-18T11:41:01.184Z,63.64
2018-03-18T11:42:01.200Z,64.27
2018-03-18T11:43:01.213Z,64.3
2018-03-18T11:44:01.229Z,63.82
2018-03-18T11:45:00.989Z,63.73
2018-03-18T11:46:01.261Z,61.93
2018-03-18T11:47:01.272Z,61.27
2018-03-18T11:48:01.036Z,61.93
2018-03-18T11:49:01.322Z,62.21
2018-03-18T11:50:01.320Z,61.74
2018-03-18T11:51:01.329Z,60.13
2018-03-18T11:52:01.344Z,60.89
2018-03-18T11:53:01.364Z,62.5
2018-03-18T11:54:01.374Z,64.78
2018-03-18T11:55:01.396Z,62.21
2018-03-18T11:56:01.521Z,61.55
2018-03-18T11:57:01.419Z,61.74
2018-03-18T11:58:01.428Z,62.78
2018-03-18T11:59:01.194Z,58.33
2018-03-18T12:00:01.462Z,60.7
2018-03-18T12:01:01.484Z,61.27
2018-03-18T12:02:01.514Z,60.79
2018-03-18T12:03:01.510Z,60.31
2018-03-18T12:04:01.528Z,61.55
2018-03-18T12:05:01.540Z,61.83
2018-03-18T12:06:01.559Z,60.89
2018-03-18T12:07:01.315Z,61.27
2018-03-18T12:08:01.584Z,61.65
2018-03-18T12:09:01.598Z,61.27
2018-03-18T12:10:01.408Z,62.21
2018-03-18T12:11:01.372Z,63.73
2018-03-18T12:12:01.645Z,64.01
2018-03-18T12:13:01.666Z,61.55
2018-03-18T12:14:01.669Z,60.6
2018-03-18T12:15:01.687Z,59.56
2018-03-18T12:16:01.453Z,60.89
2018-03-18T12:17:01.716Z,61.27
2018-03-18T12:18:01.736Z,61.65
2018-03-18T12:19:01.496Z,60.6
2018-03-18T12:20:01.758Z,59.94
2018-03-18T12:21:01.520Z,58.7
2018-03-18T12:22:01.535Z,58.89
2018-03-18T12:23:01.807Z,59.46
2018-03-18T12:24:01.564Z,61.65
2018-03-18T12:25:01.835Z,60.31
2018-03-18T12:26:01.850Z,60.7
2018-03-18T12:27:01.903Z,59.02
2018-03-18T12:28:01.617Z,58.7
2018-03-18T12:29:01.633Z,58.51
2018-03-18T12:30:01.664Z,60.22
2018-03-18T12:31:01.923Z,61.33
2018-03-18T12:32:01.939Z,61.05
2018-03-18T12:33:01.954Z,60.47
2018-03-18T12:34:01.970Z,61.33
2018-03-18T12:35:01.732Z,62.94
2018-03-18T12:36:01.999Z,62.18
2018-03-18T12:37:01.760Z,61.8
2018-03-18T12:38:02.072Z,61.24
2018-03-18T12:39:02.043Z,61.24
2018-03-18T12:40:02.057Z,62.08
2018-03-18T12:41:02.071Z,62.18
2018-03-18T12:42:02.135Z,60
2018-03-18T12:43:02.092Z,60.1
2018-03-18T12:44:02.107Z,61.14
2018-03-18T12:45:02.131Z,62.88
2018-03-18T12:46:02.150Z,60.79
2018-03-18T12:47:01.907Z,60.03
2018-03-18T12:48:02.180Z,59.66
2018-03-18T12:49:02.186Z,60.79
2018-03-18T12:50:02.216Z,62.21
2018-03-18T12:51:02.218Z,61.83
2018-03-18T12:52:02.239Z,59.37
2018-03-18T12:53:01.996Z,58.61
2018-03-18T12:54:02.274Z,59.81
2018-03-18T12:55:02.282Z,61.61
2018-03-18T12:56:02.037Z,60.47
2018-03-18T12:57:02.368Z,58.86
2018-03-18T12:58:02.322Z,59.34